메인 페이지
METAR-TAF:

METAR-TAF

공항 :

아레키파, 페루

위도: 16-19S, 경도: 071-33W, 고도: 2538m

현재 날씨관측

예보는 23분 전, 13:00시(UTC)에 발표되었습니다.
동북동13kt
온도 18°C
습도 16%
기압 1028 hPa
시정 10km 이상
1500m 미만 상공 구름 및 적란운 없음

METAR: SPQU 051300Z 07013KT CAVOK 18/M08 Q1028 RMK TX 20.7 TN 8.7 PP000

시각: 08:23 (13:23 UTC)

예보

예보는 20 시간 23분 전, 17:00시(UTC)에 발표되었습니다.
예보 대상 시간: 04일 18시부터 05일 18시까지 (UTC)
서남서10kt
시정 10km 이상
1500m 미만 상공 구름 및 적란운 없음
05일 0000시부터 (UTC)
북동5kt
시정 10km 이상
1500m 미만 상공 구름 및 적란운 없음
05일 1500시부터 (UTC)
서남서7kt
시정 10km 이상
1500m 미만 상공 구름 및 적란운 없음

TAF: SPQU 041700Z 0418/0518 25010KT CAVOK TX20/0418Z TN07/0511Z FM050000 05005KT CAVOK FM051500 24007KT CAVOK

4,000개 이상의 공항 관측 자료 및 예보 (METAR 및 TAF 보고).

지도상에서 검색 가능한 기상관측소가 노란 점과 빨간 점으로 표시되어 있습니다.

기상관측소 명을 보려면 표시 위로 마우스를 이동하세요.

날씨 관측과 예보를 보려면 클릭하세요.

지도 변경 : 확대하려면 엑스 표시가 있는 녹색 버튼, 축소하려면 빼기 표시가 있는 녹색 버튼, 다음 페이지의 지도를 보려면 녹색 화살표를 클릭하세요.


METAR-TAF: